sensor_id;sensor_type;location;lat;lon;timestamp;P1;durP1;ratioP1;P2;durP2;ratioP2
41233;SDS011;26968;42.686;23.352;2023-04-03T00:02:14;41.10;;;15.77;;
41233;SDS011;26968;42.686;23.352;2023-04-03T00:04:39;34.90;;;15.18;;
41233;SDS011;26968;42.686;23.352;2023-04-03T00:07:06;40.33;;;15.63;;
41233;SDS011;26968;42.686;23.352;2023-04-03T00:09:31;43.55;;;15.23;;
41233;SDS011;26968;42.686;23.352;2023-04-03T00:11:56;41.70;;;14.20;;
41233;SDS011;26968;42.686;23.352;2023-04-03T00:14:22;32.78;;;14.40;;
41233;SDS011;26968;42.686;23.352;2023-04-03T00:16:47;35.28;;;12.63;;
41233;SDS011;26968;42.686;23.352;2023-04-03T00:19:13;27.20;;;10.80;;
41233;SDS011;26968;42.686;23.352;2023-04-03T00:21:38;25.65;;;9.65;;
41233;SDS011;26968;42.686;23.352;2023-04-03T00:24:05;28.90;;;10.35;;
41233;SDS011;26968;42.686;23.352;2023-04-03T00:26:30;24.58;;;10.43;;
41233;SDS011;26968;42.686;23.352;2023-04-03T00:28:56;27.23;;;11.45;;
41233;SDS011;26968;42.686;23.352;2023-04-03T00:31:21;33.15;;;11.35;;
41233;SDS011;26968;42.686;23.352;2023-04-03T00:33:47;21.58;;;9.68;;
41233;SDS011;26968;42.686;23.352;2023-04-03T00:36:12;23.25;;;9.95;;
41233;SDS011;26968;42.686;23.352;2023-04-03T00:38:38;22.48;;;9.13;;
41233;SDS011;26968;42.686;23.352;2023-04-03T00:41:03;20.02;;;10.02;;
41233;SDS011;26968;42.686;23.352;2023-04-03T00:43:29;26.08;;;10.88;;
41233;SDS011;26968;42.686;23.352;2023-04-03T00:45:56;24.80;;;10.52;;
41233;SDS011;26968;42.686;23.352;2023-04-03T00:48:25;22.80;;;11.05;;
41233;SDS011;26968;42.686;23.352;2023-04-03T00:50:54;28.70;;;9.82;;
41233;SDS011;26968;42.686;23.352;2023-04-03T00:53:43;18.38;;;9.00;;
41233;SDS011;26968;42.686;23.352;2023-04-03T00:56:15;20.77;;;9.35;;
41233;SDS011;26968;42.686;23.352;2023-04-03T00:58:44;22.98;;;9.82;;
41233;SDS011;26968;42.686;23.352;2023-04-03T01:01:16;25.80;;;9.02;;
41233;SDS011;26968;42.686;23.352;2023-04-03T01:03:46;21.30;;;8.38;;
41233;SDS011;26968;42.686;23.352;2023-04-03T01:06:12;21.58;;;9.40;;
41233;SDS011;26968;42.686;23.352;2023-04-03T01:08:41;20.58;;;8.13;;
41233;SDS011;26968;42.686;23.352;2023-04-03T01:11:06;21.75;;;8.40;;
41233;SDS011;26968;42.686;23.352;2023-04-03T01:13:32;18.27;;;9.10;;
41233;SDS011;26968;42.686;23.352;2023-04-03T01:16:02;27.95;;;9.18;;
41233;SDS011;26968;42.686;23.352;2023-04-03T01:18:29;20.83;;;9.25;;
41233;SDS011;26968;42.686;23.352;2023-04-03T01:26:17;17.65;;;8.10;;
41233;SDS011;26968;42.686;23.352;2023-04-03T01:28:43;17.85;;;7.53;;
41233;SDS011;26968;42.686;23.352;2023-04-03T01:31:12;19.85;;;8.55;;
41233;SDS011;26968;42.686;23.352;2023-04-03T01:33:50;26.20;;;9.23;;
41233;SDS011;26968;42.686;23.352;2023-04-03T01:36:26;24.88;;;8.75;;
41233;SDS011;26968;42.686;23.352;2023-04-03T01:38:53;19.48;;;8.20;;
41233;SDS011;26968;42.686;23.352;2023-04-03T01:41:19;24.17;;;8.93;;
41233;SDS011;26968;42.686;23.352;2023-04-03T01:43:48;22.40;;;9.07;;
41233;SDS011;26968;42.686;23.352;2023-04-03T01:46:15;23.83;;;8.57;;
41233;SDS011;26968;42.686;23.352;2023-04-03T01:48:41;17.70;;;7.22;;
41233;SDS011;26968;42.686;23.352;2023-04-03T01:51:06;17.98;;;6.95;;
41233;SDS011;26968;42.686;23.352;2023-04-03T01:53:33;15.45;;;5.95;;
41233;SDS011;26968;42.686;23.352;2023-04-03T01:55:59;16.30;;;7.20;;
41233;SDS011;26968;42.686;23.352;2023-04-03T01:58:24;10.70;;;5.35;;
41233;SDS011;26968;42.686;23.352;2023-04-03T02:00:50;11.50;;;5.28;;
41233;SDS011;26968;42.686;23.352;2023-04-03T02:03:16;11.57;;;5.38;;
41233;SDS011;26968;42.686;23.352;2023-04-03T02:05:41;12.55;;;5.13;;
41233;SDS011;26968;42.686;23.352;2023-04-03T02:08:08;14.57;;;5.55;;
41233;SDS011;26968;42.686;23.352;2023-04-03T02:10:34;11.90;;;5.60;;
41233;SDS011;26968;42.686;23.352;2023-04-03T02:12:59;11.95;;;5.40;;
41233;SDS011;26968;42.686;23.352;2023-04-03T02:15:25;12.18;;;6.22;;
41233;SDS011;26968;42.686;23.352;2023-04-03T02:17:51;11.38;;;5.30;;
41233;SDS011;26968;42.686;23.352;2023-04-03T02:20:17;12.93;;;5.68;;
41233;SDS011;26968;42.686;23.352;2023-04-03T02:22:42;14.85;;;5.90;;
41233;SDS011;26968;42.686;23.352;2023-04-03T02:25:08;11.93;;;4.80;;
41233;SDS011;26968;42.686;23.352;2023-04-03T02:27:34;9.57;;;4.68;;
41233;SDS011;26968;42.686;23.352;2023-04-03T02:30:00;11.13;;;5.25;;
41233;SDS011;26968;42.686;23.352;2023-04-03T02:32:27;11.63;;;4.88;;
41233;SDS011;26968;42.686;23.352;2023-04-03T02:34:53;9.55;;;4.63;;
41233;SDS011;26968;42.686;23.352;2023-04-03T02:37:18;10.57;;;4.57;;
41233;SDS011;26968;42.686;23.352;2023-04-03T02:39:43;13.48;;;4.57;;
41233;SDS011;26968;42.686;23.352;2023-04-03T02:42:09;14.40;;;4.80;;
41233;SDS011;26968;42.686;23.352;2023-04-03T02:44:35;8.80;;;4.53;;
41233;SDS011;26968;42.686;23.352;2023-04-03T02:47:01;14.77;;;5.53;;
41233;SDS011;26968;42.686;23.352;2023-04-03T02:49:26;21.38;;;7.25;;
41233;SDS011;26968;42.686;23.352;2023-04-03T02:51:51;10.52;;;5.93;;
41233;SDS011;26968;42.686;23.352;2023-04-03T02:54:17;20.75;;;7.47;;
41233;SDS011;26968;42.686;23.352;2023-04-03T02:56:42;22.92;;;7.78;;
41233;SDS011;26968;42.686;23.352;2023-04-03T02:59:08;15.18;;;6.70;;
41233;SDS011;26968;42.686;23.352;2023-04-03T03:01:33;19.70;;;8.45;;
41233;SDS011;26968;42.686;23.352;2023-04-03T03:03:59;23.25;;;9.45;;
41233;SDS011;26968;42.686;23.352;2023-04-03T03:06:25;24.42;;;10.95;;
41233;SDS011;26968;42.686;23.352;2023-04-03T03:08:51;25.35;;;9.40;;
41233;SDS011;26968;42.686;23.352;2023-04-03T03:11:16;27.58;;;10.65;;
41233;SDS011;26968;42.686;23.352;2023-04-03T03:13:42;28.13;;;10.77;;
41233;SDS011;26968;42.686;23.352;2023-04-03T03:16:07;23.48;;;11.13;;
41233;SDS011;26968;42.686;23.352;2023-04-03T03:18:33;31.95;;;11.27;;
41233;SDS011;26968;42.686;23.352;2023-04-03T03:21:00;29.02;;;10.98;;
41233;SDS011;26968;42.686;23.352;2023-04-03T03:23:27;24.23;;;10.70;;
41233;SDS011;26968;42.686;23.352;2023-04-03T03:25:57;30.70;;;11.45;;
41233;SDS011;26968;42.686;23.352;2023-04-03T03:28:24;29.25;;;10.73;;
41233;SDS011;26968;42.686;23.352;2023-04-03T03:30:51;33.65;;;10.32;;
41233;SDS011;26968;42.686;23.352;2023-04-03T03:33:18;32.35;;;10.90;;
41233;SDS011;26968;42.686;23.352;2023-04-03T03:35:44;22.95;;;10.20;;
41233;SDS011;26968;42.686;23.352;2023-04-03T03:38:09;33.53;;;10.48;;
41233;SDS011;26968;42.686;23.352;2023-04-03T03:40:35;27.63;;;10.30;;
41233;SDS011;26968;42.686;23.352;2023-04-03T03:43:01;26.92;;;11.35;;
41233;SDS011;26968;42.686;23.352;2023-04-03T03:45:26;27.17;;;11.30;;
41233;SDS011;26968;42.686;23.352;2023-04-03T03:47:52;20.98;;;9.52;;
41233;SDS011;26968;42.686;23.352;2023-04-03T03:50:17;23.10;;;9.50;;
41233;SDS011;26968;42.686;23.352;2023-04-03T03:52:42;19.10;;;8.70;;
41233;SDS011;26968;42.686;23.352;2023-04-03T03:55:08;17.13;;;9.20;;
41233;SDS011;26968;42.686;23.352;2023-04-03T03:57:34;19.88;;;9.52;;
41233;SDS011;26968;42.686;23.352;2023-04-03T03:59:59;24.85;;;9.18;;
41233;SDS011;26968;42.686;23.352;2023-04-03T04:02:25;22.58;;;9.93;;
41233;SDS011;26968;42.686;23.352;2023-04-03T04:04:51;27.92;;;10.38;;
41233;SDS011;26968;42.686;23.352;2023-04-03T04:07:17;17.88;;;9.70;;
41233;SDS011;26968;42.686;23.352;2023-04-03T04:09:42;23.40;;;10.38;;
41233;SDS011;26968;42.686;23.352;2023-04-03T04:12:08;26.90;;;11.00;;
41233;SDS011;26968;42.686;23.352;2023-04-03T04:14:33;19.77;;;10.07;;
41233;SDS011;26968;42.686;23.352;2023-04-03T04:16:59;23.05;;;11.85;;
41233;SDS011;26968;42.686;23.352;2023-04-03T04:19:24;26.83;;;11.07;;
41233;SDS011;26968;42.686;23.352;2023-04-03T04:21:49;25.20;;;10.57;;
41233;SDS011;26968;42.686;23.352;2023-04-03T04:24:17;25.33;;;10.10;;
41233;SDS011;26968;42.686;23.352;2023-04-03T04:26:42;29.38;;;11.27;;
41233;SDS011;26968;42.686;23.352;2023-04-03T04:29:08;23.75;;;10.63;;
41233;SDS011;26968;42.686;23.352;2023-04-03T04:31:35;27.77;;;9.65;;
41233;SDS011;26968;42.686;23.352;2023-04-03T04:34:00;34.45;;;11.40;;
41233;SDS011;26968;42.686;23.352;2023-04-03T04:36:26;47.45;;;13.20;;
41233;SDS011;26968;42.686;23.352;2023-04-03T04:38:51;47.35;;;12.57;;
41233;SDS011;26968;42.686;23.352;2023-04-03T04:41:19;31.38;;;12.52;;
41233;SDS011;26968;42.686;23.352;2023-04-03T04:43:47;39.13;;;11.57;;
41233;SDS011;26968;42.686;23.352;2023-04-03T04:46:13;33.97;;;12.50;;
41233;SDS011;26968;42.686;23.352;2023-04-03T04:48:38;34.85;;;11.35;;
41233;SDS011;26968;42.686;23.352;2023-04-03T04:51:05;41.17;;;12.07;;
41233;SDS011;26968;42.686;23.352;2023-04-03T04:53:31;25.65;;;11.85;;
41233;SDS011;26968;42.686;23.352;2023-04-03T04:55:57;31.63;;;11.38;;
41233;SDS011;26968;42.686;23.352;2023-04-03T04:58:23;38.10;;;12.70;;
41233;SDS011;26968;42.686;23.352;2023-04-03T05:00:48;44.65;;;11.13;;
41233;SDS011;26968;42.686;23.352;2023-04-03T05:03:14;33.45;;;11.13;;
41233;SDS011;26968;42.686;23.352;2023-04-03T05:05:40;33.90;;;13.10;;
41233;SDS011;26968;42.686;23.352;2023-04-03T05:08:05;27.50;;;12.55;;
41233;SDS011;26968;42.686;23.352;2023-04-03T05:10:33;35.10;;;12.27;;
41233;SDS011;26968;42.686;23.352;2023-04-03T05:12:59;34.33;;;13.90;;
41233;SDS011;26968;42.686;23.352;2023-04-03T05:15:24;35.15;;;13.65;;
41233;SDS011;26968;42.686;23.352;2023-04-03T05:17:50;28.65;;;12.70;;
41233;SDS011;26968;42.686;23.352;2023-04-03T05:20:16;33.90;;;12.98;;
41233;SDS011;26968;42.686;23.352;2023-04-03T05:22:42;35.55;;;12.70;;
41233;SDS011;26968;42.686;23.352;2023-04-03T05:25:07;27.27;;;11.57;;
41233;SDS011;26968;42.686;23.352;2023-04-03T05:27:33;30.20;;;12.00;;
41233;SDS011;26968;42.686;23.352;2023-04-03T05:29:59;31.80;;;11.73;;
41233;SDS011;26968;42.686;23.352;2023-04-03T05:32:25;35.67;;;11.85;;
41233;SDS011;26968;42.686;23.352;2023-04-03T05:34:52;47.03;;;15.10;;
41233;SDS011;26968;42.686;23.352;2023-04-03T05:37:18;34.50;;;13.93;;
41233;SDS011;26968;42.686;23.352;2023-04-03T05:39:44;41.03;;;14.38;;
41233;SDS011;26968;42.686;23.352;2023-04-03T05:42:10;32.40;;;12.80;;
41233;SDS011;26968;42.686;23.352;2023-04-03T05:44:36;46.28;;;15.85;;
41233;SDS011;26968;42.686;23.352;2023-04-03T05:47:02;42.22;;;18.30;;
41233;SDS011;26968;42.686;23.352;2023-04-03T05:49:28;51.30;;;16.73;;
41233;SDS011;26968;42.686;23.352;2023-04-03T05:51:54;46.33;;;16.95;;
41233;SDS011;26968;42.686;23.352;2023-04-03T05:54:21;59.53;;;20.85;;
41233;SDS011;26968;42.686;23.352;2023-04-03T05:56:52;80.28;;;21.98;;
41233;SDS011;26968;42.686;23.352;2023-04-03T05:59:18;60.90;;;23.15;;
41233;SDS011;26968;42.686;23.352;2023-04-03T06:01:44;58.72;;;22.75;;
41233;SDS011;26968;42.686;23.352;2023-04-03T06:04:10;51.45;;;20.17;;
41233;SDS011;26968;42.686;23.352;2023-04-03T06:06:46;37.67;;;14.60;;
41233;SDS011;26968;42.686;23.352;2023-04-03T06:09:16;38.45;;;15.90;;
41233;SDS011;26968;42.686;23.352;2023-04-03T06:11:43;50.65;;;20.38;;
41233;SDS011;26968;42.686;23.352;2023-04-03T06:14:09;51.33;;;18.10;;
41233;SDS011;26968;42.686;23.352;2023-04-03T06:16:34;62.72;;;19.45;;
41233;SDS011;26968;42.686;23.352;2023-04-03T06:19:00;67.05;;;25.25;;
41233;SDS011;26968;42.686;23.352;2023-04-03T06:21:26;72.60;;;26.38;;
41233;SDS011;26968;42.686;23.352;2023-04-03T06:23:52;52.53;;;21.75;;
41233;SDS011;26968;42.686;23.352;2023-04-03T06:26:18;59.00;;;20.55;;
41233;SDS011;26968;42.686;23.352;2023-04-03T06:28:43;61.65;;;24.70;;
41233;SDS011;26968;42.686;23.352;2023-04-03T06:31:09;63.30;;;24.27;;
41233;SDS011;26968;42.686;23.352;2023-04-03T06:33:34;47.92;;;20.83;;
41233;SDS011;26968;42.686;23.352;2023-04-03T06:36:03;45.58;;;20.33;;
41233;SDS011;26968;42.686;23.352;2023-04-03T06:38:29;44.38;;;20.42;;
41233;SDS011;26968;42.686;23.352;2023-04-03T06:40:55;43.38;;;19.35;;
41233;SDS011;26968;42.686;23.352;2023-04-03T06:43:21;42.67;;;19.33;;
41233;SDS011;26968;42.686;23.352;2023-04-03T06:45:46;41.25;;;18.48;;
41233;SDS011;26968;42.686;23.352;2023-04-03T06:48:12;44.05;;;19.55;;
41233;SDS011;26968;42.686;23.352;2023-04-03T06:50:38;51.42;;;19.00;;
41233;SDS011;26968;42.686;23.352;2023-04-03T06:53:04;42.92;;;18.35;;
41233;SDS011;26968;42.686;23.352;2023-04-03T06:55:30;36.53;;;19.05;;
41233;SDS011;26968;42.686;23.352;2023-04-03T06:57:56;30.48;;;15.27;;
41233;SDS011;26968;42.686;23.352;2023-04-03T07:00:22;45.47;;;17.73;;
41233;SDS011;26968;42.686;23.352;2023-04-03T07:02:47;38.55;;;18.17;;
41233;SDS011;26968;42.686;23.352;2023-04-03T07:05:13;42.97;;;14.88;;
41233;SDS011;26968;42.686;23.352;2023-04-03T07:07:40;35.85;;;14.95;;
41233;SDS011;26968;42.686;23.352;2023-04-03T07:10:06;34.22;;;14.40;;
41233;SDS011;26968;42.686;23.352;2023-04-03T07:12:32;46.05;;;17.05;;
41233;SDS011;26968;42.686;23.352;2023-04-03T07:14:58;35.50;;;13.02;;
41233;SDS011;26968;42.686;23.352;2023-04-03T07:17:23;36.85;;;14.93;;
41233;SDS011;26968;42.686;23.352;2023-04-03T07:19:50;32.00;;;12.13;;
41233;SDS011;26968;42.686;23.352;2023-04-03T07:22:15;33.17;;;12.98;;
41233;SDS011;26968;42.686;23.352;2023-04-03T07:24:41;35.40;;;14.45;;
41233;SDS011;26968;42.686;23.352;2023-04-03T07:27:07;29.15;;;13.07;;
41233;SDS011;26968;42.686;23.352;2023-04-03T07:29:33;35.75;;;12.52;;
41233;SDS011;26968;42.686;23.352;2023-04-03T07:31:59;28.52;;;13.10;;
41233;SDS011;26968;42.686;23.352;2023-04-03T07:34:24;21.75;;;12.25;;
41233;SDS011;26968;42.686;23.352;2023-04-03T07:36:50;35.50;;;12.93;;
41233;SDS011;26968;42.686;23.352;2023-04-03T07:39:15;40.15;;;13.70;;
41233;SDS011;26968;42.686;23.352;2023-04-03T07:41:41;45.65;;;13.80;;
41233;SDS011;26968;42.686;23.352;2023-04-03T07:44:06;64.40;;;16.65;;
41233;SDS011;26968;42.686;23.352;2023-04-03T07:46:34;62.20;;;21.55;;
41233;SDS011;26968;42.686;23.352;2023-04-03T07:49:00;41.97;;;19.75;;
41233;SDS011;26968;42.686;23.352;2023-04-03T07:51:25;56.78;;;22.33;;
41233;SDS011;26968;42.686;23.352;2023-04-03T07:53:51;59.10;;;20.63;;
41233;SDS011;26968;42.686;23.352;2023-04-03T07:56:17;40.97;;;20.40;;
41233;SDS011;26968;42.686;23.352;2023-04-03T07:58:42;52.40;;;22.33;;
41233;SDS011;26968;42.686;23.352;2023-04-03T08:01:08;51.65;;;22.90;;
41233;SDS011;26968;42.686;23.352;2023-04-03T08:03:34;53.47;;;21.58;;
41233;SDS011;26968;42.686;23.352;2023-04-03T08:06:01;65.35;;;20.98;;
41233;SDS011;26968;42.686;23.352;2023-04-03T08:08:31;53.47;;;20.17;;
41233;SDS011;26968;42.686;23.352;2023-04-03T08:10:57;47.00;;;19.83;;
41233;SDS011;26968;42.686;23.352;2023-04-03T08:13:25;42.92;;;19.85;;
41233;SDS011;26968;42.686;23.352;2023-04-03T08:15:51;47.42;;;19.52;;
41233;SDS011;26968;42.686;23.352;2023-04-03T08:18:16;51.88;;;20.88;;
41233;SDS011;26968;42.686;23.352;2023-04-03T08:20:43;51.10;;;20.23;;
41233;SDS011;26968;42.686;23.352;2023-04-03T08:23:09;43.83;;;19.67;;
41233;SDS011;26968;42.686;23.352;2023-04-03T08:25:41;51.10;;;20.00;;
41233;SDS011;26968;42.686;23.352;2023-04-03T08:28:07;38.33;;;19.52;;
41233;SDS011;26968;42.686;23.352;2023-04-03T08:30:33;39.17;;;18.75;;
41233;SDS011;26968;42.686;23.352;2023-04-03T08:33:02;40.15;;;18.10;;
41233;SDS011;26968;42.686;23.352;2023-04-03T08:35:28;40.92;;;18.33;;
41233;SDS011;26968;42.686;23.352;2023-04-03T08:37:54;49.03;;;19.33;;
41233;SDS011;26968;42.686;23.352;2023-04-03T08:40:19;41.22;;;18.83;;
41233;SDS011;26968;42.686;23.352;2023-04-03T08:42:58;40.53;;;19.40;;
41233;SDS011;26968;42.686;23.352;2023-04-03T08:45:52;32.90;;;17.50;;
41233;SDS011;26968;42.686;23.352;2023-04-03T08:48:26;38.33;;;17.60;;
41233;SDS011;26968;42.686;23.352;2023-04-03T08:51:03;37.97;;;16.58;;
41233;SDS011;26968;42.686;23.352;2023-04-03T08:53:36;36.20;;;16.88;;
41233;SDS011;26968;42.686;23.352;2023-04-03T08:56:10;44.70;;;17.25;;
41233;SDS011;26968;42.686;23.352;2023-04-03T08:58:44;31.75;;;15.90;;
41233;SDS011;26968;42.686;23.352;2023-04-03T09:04:02;39.15;;;17.35;;
41233;SDS011;26968;42.686;23.352;2023-04-03T09:06:36;41.50;;;16.48;;
41233;SDS011;26968;42.686;23.352;2023-04-03T09:23:30;24.95;;;13.93;;
41233;SDS011;26968;42.686;23.352;2023-04-03T09:26:05;27.73;;;12.73;;
41233;SDS011;26968;42.686;23.352;2023-04-03T09:28:35;35.72;;;13.95;;
41233;SDS011;26968;42.686;23.352;2023-04-03T09:31:38;25.77;;;15.07;;
41233;SDS011;26968;42.686;23.352;2023-04-03T09:34:20;30.58;;;13.80;;
41233;SDS011;26968;42.686;23.352;2023-04-03T09:36:56;33.22;;;12.30;;
41233;SDS011;26968;42.686;23.352;2023-04-03T09:39:25;29.52;;;12.68;;
41233;SDS011;26968;42.686;23.352;2023-04-03T09:41:59;34.67;;;14.38;;
41233;SDS011;26968;42.686;23.352;2023-04-03T09:44:28;33.08;;;15.00;;
41233;SDS011;26968;42.686;23.352;2023-04-03T09:46:54;27.45;;;13.43;;
41233;SDS011;26968;42.686;23.352;2023-04-03T09:49:20;33.50;;;15.02;;
41233;SDS011;26968;42.686;23.352;2023-04-03T09:51:46;32.85;;;15.80;;
41233;SDS011;26968;42.686;23.352;2023-04-03T09:57:04;33.85;;;15.27;;
41233;SDS011;26968;42.686;23.352;2023-04-03T09:59:32;34.17;;;16.35;;
41233;SDS011;26968;42.686;23.352;2023-04-03T10:02:00;37.60;;;17.25;;
41233;SDS011;26968;42.686;23.352;2023-04-03T10:04:37;31.83;;;14.73;;
41233;SDS011;26968;42.686;23.352;2023-04-03T10:07:25;27.38;;;13.60;;
41233;SDS011;26968;42.686;23.352;2023-04-03T10:09:56;32.40;;;13.43;;
41233;SDS011;26968;42.686;23.352;2023-04-03T10:12:24;26.60;;;11.75;;
41233;SDS011;26968;42.686;23.352;2023-04-03T10:20:04;29.15;;;12.40;;
41233;SDS011;26968;42.686;23.352;2023-04-03T10:25:27;27.25;;;12.68;;
41233;SDS011;26968;42.686;23.352;2023-04-03T10:28:25;29.58;;;13.32;;
41233;SDS011;26968;42.686;23.352;2023-04-03T10:31:10;21.45;;;11.18;;
41233;SDS011;26968;42.686;23.352;2023-04-03T10:33:52;25.77;;;10.93;;
41233;SDS011;26968;42.686;23.352;2023-04-03T10:36:27;23.63;;;9.68;;
41233;SDS011;26968;42.686;23.352;2023-04-03T10:42:04;27.65;;;9.93;;
41233;SDS011;26968;42.686;23.352;2023-04-03T10:47:46;19.63;;;8.47;;
41233;SDS011;26968;42.686;23.352;2023-04-03T11:02:04;24.55;;;8.93;;
41233;SDS011;26968;42.686;23.352;2023-04-03T11:04:31;21.23;;;6.90;;
41233;SDS011;26968;42.686;23.352;2023-04-03T11:09:35;14.80;;;5.13;;
41233;SDS011;26968;42.686;23.352;2023-04-03T11:12:17;11.30;;;5.33;;
41233;SDS011;26968;42.686;23.352;2023-04-03T11:14:48;13.73;;;4.85;;
41233;SDS011;26968;42.686;23.352;2023-04-03T11:27:55;14.63;;;5.15;;
41233;SDS011;26968;42.686;23.352;2023-04-03T11:30:41;11.35;;;5.65;;
41233;SDS011;26968;42.686;23.352;2023-04-03T11:36:19;9.13;;;4.28;;
41233;SDS011;26968;42.686;23.352;2023-04-03T11:38:50;9.05;;;5.07;;
41233;SDS011;26968;42.686;23.352;2023-04-03T11:41:30;8.70;;;4.75;;
41233;SDS011;26968;42.686;23.352;2023-04-03T11:44:04;11.18;;;3.92;;
41233;SDS011;26968;42.686;23.352;2023-04-03T12:11:32;8.23;;;3.67;;
41233;SDS011;26968;42.686;23.352;2023-04-03T12:42:21;10.55;;;4.28;;
41233;SDS011;26968;42.686;23.352;2023-04-03T12:45:02;10.50;;;4.88;;
41233;SDS011;26968;42.686;23.352;2023-04-03T12:47:49;7.53;;;5.75;;
41233;SDS011;26968;42.686;23.352;2023-04-03T12:50:21;10.57;;;4.88;;
41233;SDS011;26968;42.686;23.352;2023-04-03T12:53:31;13.18;;;5.72;;
41233;SDS011;26968;42.686;23.352;2023-04-03T12:55:40;8.38;;;6.00;;
41233;SDS011;26968;42.686;23.352;2023-04-03T12:58:16;10.95;;;5.63;;
41233;SDS011;26968;42.686;23.352;2023-04-03T13:00:47;13.13;;;6.40;;
41233;SDS011;26968;42.686;23.352;2023-04-03T13:03:25;10.85;;;5.32;;
41233;SDS011;26968;42.686;23.352;2023-04-03T13:05:53;15.25;;;5.22;;
41233;SDS011;26968;42.686;23.352;2023-04-03T13:08:24;13.88;;;6.22;;
41233;SDS011;26968;42.686;23.352;2023-04-03T13:11:01;11.25;;;6.40;;
41233;SDS011;26968;42.686;23.352;2023-04-03T13:13:31;11.38;;;6.47;;
41233;SDS011;26968;42.686;23.352;2023-04-03T13:15:57;13.07;;;7.00;;
41233;SDS011;26968;42.686;23.352;2023-04-03T13:18:31;10.95;;;6.82;;
41233;SDS011;26968;42.686;23.352;2023-04-03T13:21:33;12.80;;;7.13;;
41233;SDS011;26968;42.686;23.352;2023-04-03T13:24:00;18.08;;;7.47;;
41233;SDS011;26968;42.686;23.352;2023-04-03T13:26:28;17.15;;;8.27;;
41233;SDS011;26968;42.686;23.352;2023-04-03T13:29:00;12.68;;;8.32;;
41233;SDS011;26968;42.686;23.352;2023-04-03T13:31:29;10.93;;;6.65;;
41233;SDS011;26968;42.686;23.352;2023-04-03T13:37:11;14.55;;;7.78;;
41233;SDS011;26968;42.686;23.352;2023-04-03T13:39:27;16.98;;;8.65;;
41233;SDS011;26968;42.686;23.352;2023-04-03T13:41:55;14.27;;;8.20;;
41233;SDS011;26968;42.686;23.352;2023-04-03T13:46:48;13.88;;;7.20;;
41233;SDS011;26968;42.686;23.352;2023-04-03T13:52:01;13.00;;;7.38;;
41233;SDS011;26968;42.686;23.352;2023-04-03T13:54:49;12.32;;;6.47;;
41233;SDS011;26968;42.686;23.352;2023-04-03T13:57:19;11.60;;;7.47;;
41233;SDS011;26968;42.686;23.352;2023-04-03T13:59:45;12.43;;;6.95;;
41233;SDS011;26968;42.686;23.352;2023-04-03T14:04:47;15.30;;;10.55;;
41233;SDS011;26968;42.686;23.352;2023-04-03T14:07:16;13.00;;;9.48;;
41233;SDS011;26968;42.686;23.352;2023-04-03T14:09:44;15.55;;;9.65;;
41233;SDS011;26968;42.686;23.352;2023-04-03T14:12:52;19.88;;;9.60;;
41233;SDS011;26968;42.686;23.352;2023-04-03T14:15:03;13.23;;;8.80;;
41233;SDS011;26968;42.686;23.352;2023-04-03T14:17:30;16.10;;;9.45;;
41233;SDS011;26968;42.686;23.352;2023-04-03T14:19:56;15.80;;;9.55;;
41233;SDS011;26968;42.686;23.352;2023-04-03T14:22:31;16.73;;;8.75;;
41233;SDS011;26968;42.686;23.352;2023-04-03T14:24:59;17.20;;;9.68;;
41233;SDS011;26968;42.686;23.352;2023-04-03T14:27:26;18.05;;;10.30;;
41233;SDS011;26968;42.686;23.352;2023-04-03T14:29:55;20.17;;;11.07;;
41233;SDS011;26968;42.686;23.352;2023-04-03T14:32:23;14.05;;;9.90;;
41233;SDS011;26968;42.686;23.352;2023-04-03T14:34:49;15.45;;;9.18;;
41233;SDS011;26968;42.686;23.352;2023-04-03T14:37:17;11.15;;;7.38;;
41233;SDS011;26968;42.686;23.352;2023-04-03T14:39:45;13.40;;;7.63;;
41233;SDS011;26968;42.686;23.352;2023-04-03T14:42:12;13.98;;;8.55;;
41233;SDS011;26968;42.686;23.352;2023-04-03T14:44:39;11.55;;;7.25;;
41233;SDS011;26968;42.686;23.352;2023-04-03T14:47:05;15.32;;;6.60;;
41233;SDS011;26968;42.686;23.352;2023-04-03T14:49:54;12.52;;;6.93;;
41233;SDS011;26968;42.686;23.352;2023-04-03T14:52:25;11.15;;;6.50;;
41233;SDS011;26968;42.686;23.352;2023-04-03T14:54:54;14.27;;;6.85;;
41233;SDS011;26968;42.686;23.352;2023-04-03T14:57:20;8.48;;;5.82;;
41233;SDS011;26968;42.686;23.352;2023-04-03T14:59:49;9.45;;;5.43;;
41233;SDS011;26968;42.686;23.352;2023-04-03T15:04:57;10.45;;;4.85;;
41233;SDS011;26968;42.686;23.352;2023-04-03T15:07:24;6.55;;;4.93;;
41233;SDS011;26968;42.686;23.352;2023-04-03T15:09:51;9.48;;;4.93;;
41233;SDS011;26968;42.686;23.352;2023-04-03T15:12:17;5.47;;;4.05;;
41233;SDS011;26968;42.686;23.352;2023-04-03T15:14:43;7.65;;;4.30;;
41233;SDS011;26968;42.686;23.352;2023-04-03T15:17:12;11.40;;;4.00;;
41233;SDS011;26968;42.686;23.352;2023-04-03T15:19:41;6.13;;;3.95;;
41233;SDS011;26968;42.686;23.352;2023-04-03T15:22:06;5.80;;;4.30;;
41233;SDS011;26968;42.686;23.352;2023-04-03T15:24:38;4.90;;;3.60;;
41233;SDS011;26968;42.686;23.352;2023-04-03T15:27:03;7.93;;;4.20;;
41233;SDS011;26968;42.686;23.352;2023-04-03T15:29:29;5.53;;;4.10;;
41233;SDS011;26968;42.686;23.352;2023-04-03T15:31:54;5.72;;;4.00;;
41233;SDS011;26968;42.686;23.352;2023-04-03T15:34:20;8.63;;;4.50;;
41233;SDS011;26968;42.686;23.352;2023-04-03T15:36:46;9.82;;;4.38;;
41233;SDS011;26968;42.686;23.352;2023-04-03T15:39:12;9.93;;;5.43;;
41233;SDS011;26968;42.686;23.352;2023-04-03T15:41:37;6.63;;;4.03;;
41233;SDS011;26968;42.686;23.352;2023-04-03T15:44:03;8.70;;;4.70;;
41233;SDS011;26968;42.686;23.352;2023-04-03T15:46:28;10.40;;;5.68;;
41233;SDS011;26968;42.686;23.352;2023-04-03T15:48:54;7.82;;;5.53;;
41233;SDS011;26968;42.686;23.352;2023-04-03T15:51:20;10.05;;;6.05;;
41233;SDS011;26968;42.686;23.352;2023-04-03T15:53:45;8.82;;;5.53;;
41233;SDS011;26968;42.686;23.352;2023-04-03T15:56:10;13.45;;;6.05;;
41233;SDS011;26968;42.686;23.352;2023-04-03T15:58:36;10.57;;;6.05;;
41233;SDS011;26968;42.686;23.352;2023-04-03T16:01:02;14.35;;;6.40;;
41233;SDS011;26968;42.686;23.352;2023-04-03T16:03:28;10.85;;;6.78;;
41233;SDS011;26968;42.686;23.352;2023-04-03T16:05:53;11.68;;;7.80;;
41233;SDS011;26968;42.686;23.352;2023-04-03T16:08:19;9.32;;;6.53;;
41233;SDS011;26968;42.686;23.352;2023-04-03T16:10:45;11.88;;;6.55;;
41233;SDS011;26968;42.686;23.352;2023-04-03T16:13:12;11.48;;;7.30;;
41233;SDS011;26968;42.686;23.352;2023-04-03T16:15:37;10.52;;;6.93;;
41233;SDS011;26968;42.686;23.352;2023-04-03T16:18:03;10.80;;;6.90;;
41233;SDS011;26968;42.686;23.352;2023-04-03T16:20:30;10.27;;;6.45;;
41233;SDS011;26968;42.686;23.352;2023-04-03T16:22:56;12.75;;;7.13;;
41233;SDS011;26968;42.686;23.352;2023-04-03T16:25:24;13.15;;;8.25;;
41233;SDS011;26968;42.686;23.352;2023-04-03T16:27:51;16.58;;;9.38;;
41233;SDS011;26968;42.686;23.352;2023-04-03T16:30:17;14.82;;;9.95;;
41233;SDS011;26968;42.686;23.352;2023-04-03T16:32:43;14.15;;;9.68;;
41233;SDS011;26968;42.686;23.352;2023-04-03T16:35:09;22.08;;;10.95;;
41233;SDS011;26968;42.686;23.352;2023-04-03T16:37:35;13.55;;;9.05;;